Time;durP1;ratioP1;P1;durP2;ratioP2;P2;SDS_P1;SDS_P2;PMS_P1;PMS_P2;Temp;Humidity;BMP_temperature;BMP_pressure;BME280_temperature;BME280_humidity;BME280_pressure;Samples;Min_cycle;Max_cycle;Signal;HPM_P1;HPM_P2
2023/07/30 07:51:13;;;;;;;;;5.25;5.25;;;;;;;;5063800;28;13440;-67
2023/07/30 07:53:38;;;;;;;;;6.00;6.00;;;;;;;;5066893;28;8802;-68
2023/07/30 07:56:04;;;;;;;;;6.00;6.00;;;;;;;;5101831;22;8892;-76
2023/07/30 07:58:30;;;;;;;;;5.33;5.33;;;;;;;;5076892;28;9625;-74
2023/07/30 08:00:55;;;;;;;;;4.50;4.50;;;;;;;;5077021;28;8927;-80
2023/07/30 08:03:21;;;;;;;;;6.33;6.33;;;;;;;;5075024;28;8937;-74
2023/07/30 08:05:46;;;;;;;;;4.67;4.67;;;;;;;;5085643;28;8796;-73
2023/07/30 08:08:12;;;;;;;;;5.00;5.00;;;;;;;;5084735;28;8831;-73
2023/07/30 08:10:43;;;;;;;;;6.00;5.00;;;;;;;;5086572;28;8855;-73
2023/07/30 08:13:08;;;;;;;;;5.50;5.50;;;;;;;;5086309;28;8803;-77
2023/07/30 08:15:33;;;;;;;;;6.00;5.00;;;;;;;;5086401;28;8780;-77
2023/07/30 08:17:59;;;;;;;;;7.00;5.00;;;;;;;;5086896;28;8807;-78
2023/07/30 08:20:24;;;;;;;;;8.67;7.33;;;;;;;;5084316;28;9021;-83
2023/07/30 08:22:49;;;;;;;;;27.33;27.33;;;;;;;;5077370;28;8847;-81
2023/07/30 08:25:14;;;;;;;;;5.75;5.75;;;;;;;;5084923;28;9823;-81
2023/07/30 08:27:40;;;;;;;;;5.75;5.75;;;;;;;;5084503;28;8850;-80
2023/07/30 08:30:05;;;;;;;;;8.25;8.00;;;;;;;;5084459;28;8937;-81
2023/07/30 08:32:32;;;;;;;;;8.25;8.00;;;;;;;;5084682;28;8927;-80
2023/07/30 08:34:57;;;;;;;;;7.00;7.00;;;;;;;;5085054;28;8894;-81
2023/07/30 08:37:23;;;;;;;;;6.25;6.00;;;;;;;;5083286;28;8979;-81
2023/07/30 08:39:48;;;;;;;;;3.00;3.00;;;;;;;;5083520;28;8812;-81
2023/07/30 08:42:14;;;;;;;;;6.00;5.00;;;;;;;;5086359;28;8792;-81
2023/07/30 08:44:39;;;;;;;;;4.00;4.00;;;;;;;;5085982;28;8972;-80
2023/07/30 08:47:04;;;;;;;;;3.50;3.50;;;;;;;;5086185;28;8804;-80
2023/07/30 08:49:32;;;;;;;;;3.00;3.00;;;;;;;;5086051;28;8828;-80
2023/07/30 08:51:58;;;;;;;;;2.40;2.40;;;;;;;;5084675;28;8804;-80
2023/07/30 08:54:24;;;;;;;;;2.75;2.75;;;;;;;;5086551;28;8839;-80
2023/07/30 08:56:49;;;;;;;;;4.67;3.33;;;;;;;;5086266;28;8796;-79
2023/07/30 08:59:15;;;;;;;;;4.00;4.00;;;;;;;;5085780;28;8920;-80
2023/07/30 09:01:42;;;;;;;;;4.67;4.00;;;;;;;;5077627;28;8850;-79
2023/07/30 09:04:08;;;;;;;;;3.00;3.00;;;;;;;;5072297;28;8788;-79
2023/07/30 09:06:34;;;;;;;;;4.50;4.00;;;;;;;;5072290;28;8826;-79
2023/07/30 09:08:59;;;;;;;;;4.00;4.00;;;;;;;;5072329;28;8816;-79
2023/07/30 09:11:27;;;;;;;;;4.00;4.00;;;;;;;;5072161;28;8946;-79
2023/07/30 09:13:53;;;;;;;;;4.75;4.25;;;;;;;;5071921;28;8784;-75
2023/07/30 09:16:18;;;;;;;;;6.00;6.00;;;;;;;;5072151;28;8894;-74
2023/07/30 09:18:44;;;;;;;;;7.00;4.00;;;;;;;;5065282;28;8910;-75
2023/07/30 09:21:11;;;;;;;;;10.50;10.50;;;;;;;;5062481;28;9590;-74
2023/07/30 09:23:42;;;;;;;;;8.25;7.25;;;;;;;;5061778;28;8822;-73
2023/07/30 09:26:08;;;;;;;;;6.00;6.00;;;;;;;;5060625;28;8855;-75
2023/07/30 09:28:33;;;;;;;;;6.00;6.00;;;;;;;;5055563;28;8981;-73
2023/07/30 09:31:05;;;;;;;;;4.33;4.33;;;;;;;;5063219;28;8897;-73
2023/07/30 09:33:31;;;;;;;;;3.00;3.00;;;;;;;;5062567;28;8827;-73
2023/07/30 09:35:56;;;;;;;;;5.33;5.33;;;;;;;;5060525;28;8856;-74
2023/07/30 09:38:22;;;;;;;;;4.00;4.00;;;;;;;;5061927;28;8800;-73
2023/07/30 09:40:50;;;;;;;;;6.00;6.00;;;;;;;;5061882;28;8843;-73
2023/07/30 09:43:15;;;;;;;;;6.50;5.25;;;;;;;;5058745;28;9545;-73
2023/07/30 09:45:43;;;;;;;;;6.33;5.33;;;;;;;;5063002;28;8823;-75
2023/07/30 09:48:08;;;;;;;;;5.00;4.50;;;;;;;;5060516;28;8815;-75
2023/07/30 09:50:34;;;;;;;;;4.00;4.00;;;;;;;;5062101;28;8800;-73
2023/07/30 09:53:01;;;;;;;;;5.00;5.00;;;;;;;;5059285;28;8937;-74
2023/07/30 09:55:26;;;;;;;;;8.00;7.75;;;;;;;;5059321;28;8870;-74
2023/07/30 09:57:52;;;;;;;;;6.00;6.00;;;;;;;;5061731;28;8784;-76
2023/07/30 10:00:17;;;;;;;;;6.33;5.67;;;;;;;;5092062;28;8841;-72
2023/07/30 10:02:45;;;;;;;;;6.00;6.00;;;;;;;;5061016;28;8804;-72
2023/07/30 10:05:14;;;;;;;;;5.75;5.75;;;;;;;;5061632;28;8896;-70
2023/07/30 10:07:59;;;;;;;;;6.00;5.00;;;;;;;;5061816;28;8792;-70
2023/07/30 10:10:25;;;;;;;;;4.75;4.75;;;;;;;;5061030;28;8820;-71
2023/07/30 10:12:52;;;;;;;;;5.75;5.75;;;;;;;;5061035;28;8895;-71
2023/07/30 10:15:23;;;;;;;;;7.75;6.50;;;;;;;;5061558;28;8917;-70
2023/07/30 10:17:48;;;;;;;;;8.00;7.75;;;;;;;;5061669;28;8915;-71
2023/07/30 10:20:21;;;;;;;;;18.00;18.00;;;;;;;;5061288;28;8818;-71
2023/07/30 10:22:47;;;;;;;;;4.75;4.75;;;;;;;;5059026;28;8953;-70
2023/07/30 10:25:12;;;;;;;;;4.67;4.67;;;;;;;;5064581;28;8934;-70
2023/07/30 10:27:39;;;;;;;;;5.33;5.33;;;;;;;;5070370;28;8923;-70
2023/07/30 10:30:11;;;;;;;;;7.00;5.50;;;;;;;;5070267;28;11535;-70
2023/07/30 10:32:39;;;;;;;;;6.75;6.00;;;;;;;;5070528;28;8899;-70
2023/07/30 10:35:04;;;;;;;;;4.75;4.75;;;;;;;;5070359;28;8939;-69
2023/07/30 10:37:30;;;;;;;;;7.00;4.00;;;;;;;;5070570;28;8854;-70
2023/07/30 10:39:55;;;;;;;;;7.33;6.00;;;;;;;;5070840;28;8812;-70
2023/07/30 10:42:21;;;;;;;;;14.33;13.33;;;;;;;;5070552;28;8965;-69
2023/07/30 10:44:46;;;;;;;;;9.00;8.00;;;;;;;;5070486;28;9487;-78
2023/07/30 10:47:11;;;;;;;;;7.00;6.00;;;;;;;;5069113;28;8847;-73
2023/07/30 10:49:38;;;;;;;;;10.00;10.00;;;;;;;;5069987;28;8839;-72
2023/07/30 10:52:03;;;;;;;;;8.00;8.00;;;;;;;;5068936;28;8808;-72
2023/07/30 10:54:33;;;;;;;;;7.00;7.00;;;;;;;;5117577;22;8843;-72
2023/07/30 10:56:58;;;;;;;;;7.25;5.00;;;;;;;;5070226;28;8783;-71
2023/07/30 10:59:23;;;;;;;;;5.33;5.33;;;;;;;;5068813;28;9588;-68
2023/07/30 11:01:49;;;;;;;;;6.00;6.00;;;;;;;;5069064;28;8819;-68
2023/07/30 11:04:18;;;;;;;;;7.00;6.33;;;;;;;;5070376;28;8888;-69
2023/07/30 11:06:48;;;;;;;;;5.25;5.00;;;;;;;;5070292;28;8798;-70
2023/07/30 11:09:20;;;;;;;;;5.50;5.50;;;;;;;;5070238;28;8907;-69
2023/07/30 11:11:46;;;;;;;;;5.75;5.75;;;;;;;;5070423;28;8895;-69
2023/07/30 11:14:16;;;;;;;;;6.00;6.00;;;;;;;;5070067;28;9408;-66
2023/07/30 11:16:47;;;;;;;;;7.25;7.25;;;;;;;;5069011;28;8811;-72
2023/07/30 11:19:14;;;;;;;;;14.75;12.25;;;;;;;;5070061;28;8887;-75
2023/07/30 11:21:44;;;;;;;;;12.25;12.25;;;;;;;;5067940;28;8815;-74
2023/07/30 11:24:09;;;;;;;;;11.75;11.75;;;;;;;;5069735;28;8880;-74
2023/07/30 11:26:35;;;;;;;;;12.33;11.67;;;;;;;;5073186;28;8803;-75
2023/07/30 11:29:00;;;;;;;;;11.33;9.67;;;;;;;;5069446;28;8818;-75
2023/07/30 11:31:27;;;;;;;;;12.00;12.00;;;;;;;;5069528;28;8899;-75
2023/07/30 11:33:52;;;;;;;;;13.00;13.00;;;;;;;;5069640;28;8802;-73
2023/07/30 11:36:22;;;;;;;;;12.33;12.33;;;;;;;;5068049;28;8833;-74
2023/07/30 11:38:47;;;;;;;;;11.00;10.50;;;;;;;;5068520;28;8829;-74
2023/07/30 11:41:13;;;;;;;;;13.67;13.67;;;;;;;;5066592;28;8843;-74
2023/07/30 11:43:41;;;;;;;;;11.67;11.67;;;;;;;;5069333;28;8810;-74
2023/07/30 11:46:08;;;;;;;;;9.25;9.25;;;;;;;;5069426;28;8833;-74
2023/07/30 11:48:33;;;;;;;;;14.75;13.50;;;;;;;;5066469;28;8814;-74
2023/07/30 11:50:58;;;;;;;;;9.00;8.33;;;;;;;;5069508;28;8895;-74
2023/07/30 11:53:43;;;;;;;;;13.67;13.67;;;;;;;;5069238;28;8787;-74
2023/07/30 11:56:14;;;;;;;;;14.00;12.25;;;;;;;;5089465;22;8886;-71
2023/07/30 11:58:41;;;;;;;;;14.75;14.25;;;;;;;;5068359;28;8829;-71
2023/07/30 12:01:06;;;;;;;;;11.75;10.75;;;;;;;;5069669;28;8865;-71
2023/07/30 12:03:31;;;;;;;;;11.00;11.00;;;;;;;;5069724;28;9528;-71
2023/07/30 12:05:57;;;;;;;;;7.00;7.00;;;;;;;;5069956;28;8775;-71
2023/07/30 12:08:26;;;;;;;;;9.33;6.00;;;;;;;;5069767;28;8934;-71
2023/07/30 12:10:52;;;;;;;;;16.50;13.75;;;;;;;;5067622;28;8818;-71
2023/07/30 12:13:18;;;;;;;;;14.00;12.00;;;;;;;;5069627;28;8834;-71
2023/07/30 12:15:53;;;;;;;;;11.33;9.67;;;;;;;;5069722;28;8782;-71
2023/07/30 12:18:23;;;;;;;;;8.50;8.50;;;;;;;;5069668;28;8801;-71
2023/07/30 12:20:50;;;;;;;;;13.75;12.50;;;;;;;;5067060;28;8811;-71
2023/07/30 12:23:15;;;;;;;;;11.00;11.00;;;;;;;;5069818;28;8790;-71
2023/07/30 12:25:41;;;;;;;;;13.00;11.00;;;;;;;;5069685;28;8786;-71
2023/07/30 12:28:06;;;;;;;;;10.00;10.00;;;;;;;;5069393;28;8802;-71
2023/07/30 12:30:32;;;;;;;;;11.00;11.00;;;;;;;;5069617;28;8859;-72
2023/07/30 12:32:58;;;;;;;;;11.00;11.00;;;;;;;;5069973;28;8783;-70
2023/07/30 12:35:23;;;;;;;;;12.00;12.00;;;;;;;;5070079;28;8982;-74
2023/07/30 12:37:49;;;;;;;;;5.33;5.33;;;;;;;;5072716;28;8949;-72
2023/07/30 12:40:16;;;;;;;;;10.00;10.00;;;;;;;;5071487;28;8846;-78
2023/07/30 12:42:41;;;;;;;;;8.25;8.25;;;;;;;;5072185;28;9618;-79
2023/07/30 12:45:07;;;;;;;;;8.00;8.00;;;;;;;;5072035;28;8791;-72
2023/07/30 12:47:35;;;;;;;;;12.33;11.67;;;;;;;;5073393;28;8806;-72
2023/07/30 12:50:00;;;;;;;;;11.25;11.00;;;;;;;;5072811;28;8822;-73
2023/07/30 12:52:25;;;;;;;;;6.00;4.00;;;;;;;;5073509;28;8771;-73
2023/07/30 12:54:51;;;;;;;;;7.67;7.67;;;;;;;;5073861;28;8818;-76
2023/07/30 12:57:16;;;;;;;;;10.00;8.33;;;;;;;;5071875;28;8799;-78
2023/07/30 12:59:42;;;;;;;;;6.00;5.00;;;;;;;;5071060;28;8830;-77
2023/07/30 13:02:07;;;;;;;;;7.33;7.00;;;;;;;;5069842;28;9631;-79
2023/07/30 13:04:32;;;;;;;;;7.00;7.00;;;;;;;;5073217;28;8878;-76
2023/07/30 13:06:57;;;;;;;;;9.00;8.00;;;;;;;;5072888;28;8830;-77
2023/07/30 13:09:23;;;;;;;;;9.67;9.00;;;;;;;;5072501;28;8803;-73
2023/07/30 13:11:48;;;;;;;;;9.00;9.00;;;;;;;;5072724;28;9527;-74
2023/07/30 13:14:13;;;;;;;;;12.00;12.00;;;;;;;;5072393;28;8816;-74
2023/07/30 13:16:38;;;;;;;;;7.00;7.00;;;;;;;;5072539;28;8899;-74
2023/07/30 13:19:04;;;;;;;;;8.00;8.00;;;;;;;;5072515;28;9524;-74
2023/07/30 13:21:29;;;;;;;;;10.67;8.67;;;;;;;;5072599;28;8822;-74
2023/07/30 13:23:54;;;;;;;;;9.00;7.33;;;;;;;;5072322;28;8795;-74
2023/07/30 13:26:20;;;;;;;;;6.00;5.67;;;;;;;;5072475;28;8802;-74
2023/07/30 13:28:45;;;;;;;;;9.67;8.00;;;;;;;;5070751;28;8921;-72
2023/07/30 13:31:10;;;;;;;;;10.67;8.00;;;;;;;;5072336;28;8790;-73
2023/07/30 13:33:36;;;;;;;;;11.00;10.00;;;;;;;;5072264;28;8774;-73
2023/07/30 13:36:01;;;;;;;;;7.00;7.00;;;;;;;;5072228;28;8918;-73
2023/07/30 13:38:27;;;;;;;;;10.67;10.00;;;;;;;;5072191;28;8771;-75
2023/07/30 13:40:52;;;;;;;;;6.33;6.33;;;;;;;;5072115;28;8822;-73
2023/07/30 13:43:17;;;;;;;;;6.33;6.33;;;;;;;;5071867;28;8794;-73
2023/07/30 13:45:43;;;;;;;;;8.00;8.00;;;;;;;;5071904;28;8806;-74
2023/07/30 13:48:09;;;;;;;;;10.00;10.00;;;;;;;;5071557;28;9565;-73
2023/07/30 13:50:34;;;;;;;;;11.00;11.00;;;;;;;;5072016;28;8806;-75
2023/07/30 13:52:59;;;;;;;;;11.00;11.00;;;;;;;;5069113;28;8810;-72
2023/07/30 13:55:25;;;;;;;;;10.00;8.67;;;;;;;;5070519;28;8858;-72
2023/07/30 13:57:50;;;;;;;;;6.67;6.67;;;;;;;;5071856;28;8810;-72
2023/07/30 14:00:16;;;;;;;;;7.67;7.67;;;;;;;;5071356;28;8864;-72
2023/07/30 14:02:41;;;;;;;;;7.00;7.00;;;;;;;;5071738;28;8871;-69
2023/07/30 14:05:07;;;;;;;;;10.67;9.00;;;;;;;;5071696;28;8892;-72
2023/07/30 14:07:32;;;;;;;;;10.00;8.33;;;;;;;;5071353;28;8798;-73
2023/07/30 14:09:57;;;;;;;;;6.67;6.67;;;;;;;;5071602;28;8787;-73
2023/07/30 14:12:23;;;;;;;;;4.33;4.33;;;;;;;;5070865;28;8823;-71
2023/07/30 14:14:48;;;;;;;;;8.33;8.33;;;;;;;;5071832;28;8918;-71
2023/07/30 14:17:13;;;;;;;;;9.00;9.00;;;;;;;;5072269;28;8893;-71
2023/07/30 14:19:39;;;;;;;;;6.00;6.00;;;;;;;;5072009;28;9497;-71
2023/07/30 14:22:04;;;;;;;;;8.33;8.33;;;;;;;;5071981;28;8813;-71
2023/07/30 14:24:29;;;;;;;;;7.00;6.00;;;;;;;;5072017;28;8885;-72
2023/07/30 14:26:55;;;;;;;;;7.00;7.00;;;;;;;;5071856;28;8779;-71
2023/07/30 14:29:20;;;;;;;;;7.00;7.00;;;;;;;;5070901;28;8933;-72
2023/07/30 14:31:45;;;;;;;;;8.00;6.33;;;;;;;;5071961;28;8815;-71
2023/07/30 14:34:10;;;;;;;;;8.00;8.00;;;;;;;;5071730;28;8891;-71
2023/07/30 14:36:36;;;;;;;;;7.33;7.33;;;;;;;;5071595;28;8791;-71
2023/07/30 14:39:01;;;;;;;;;6.00;6.00;;;;;;;;5071573;28;8798;-71
2023/07/30 14:41:26;;;;;;;;;10.00;9.00;;;;;;;;5071443;28;8802;-71
2023/07/30 14:43:51;;;;;;;;;9.67;9.67;;;;;;;;5071187;28;8786;-71
2023/07/30 14:46:17;;;;;;;;;11.33;10.00;;;;;;;;5071521;28;8790;-70
2023/07/30 14:48:43;;;;;;;;;10.67;9.00;;;;;;;;5071241;28;8901;-72
2023/07/30 14:51:08;;;;;;;;;10.25;9.00;;;;;;;;5069248;28;8803;-71
2023/07/30 14:53:34;;;;;;;;;9.67;9.00;;;;;;;;5069805;28;8778;-71
2023/07/30 14:55:59;;;;;;;;;10.33;9.67;;;;;;;;5069986;28;8956;-70
2023/07/30 14:58:25;;;;;;;;;10.00;10.00;;;;;;;;5068058;28;8919;-72
2023/07/30 15:00:50;;;;;;;;;7.67;7.67;;;;;;;;5070137;28;8870;-74
2023/07/30 15:03:15;;;;;;;;;13.67;10.67;;;;;;;;5070238;28;8778;-74
2023/07/30 15:05:40;;;;;;;;;11.67;11.00;;;;;;;;5071105;28;8779;-74
2023/07/30 15:08:06;;;;;;;;;8.33;8.33;;;;;;;;5068597;28;8810;-74
2023/07/30 15:10:31;;;;;;;;;10.00;10.00;;;;;;;;5070945;28;8905;-72
2023/07/30 15:12:56;;;;;;;;;12.67;12.67;;;;;;;;5070143;28;8779;-72
2023/07/30 15:15:22;;;;;;;;;14.33;12.33;;;;;;;;5070711;28;9533;-75
2023/07/30 15:17:47;;;;;;;;;7.67;6.67;;;;;;;;5070371;28;8806;-75
2023/07/30 15:20:12;;;;;;;;;10.33;9.67;;;;;;;;5068923;28;8818;-74
2023/07/30 15:22:38;;;;;;;;;12.67;12.33;;;;;;;;5070856;28;8867;-75
2023/07/30 15:25:04;;;;;;;;;10.00;10.00;;;;;;;;5070788;28;8787;-75
2023/07/30 15:27:29;;;;;;;;;9.00;8.25;;;;;;;;5070743;28;8883;-74
2023/07/30 15:29:55;;;;;;;;;11.00;10.67;;;;;;;;5070494;28;8925;-75
2023/07/30 15:32:20;;;;;;;;;8.33;8.33;;;;;;;;5070944;28;8819;-74
2023/07/30 15:34:45;;;;;;;;;11.00;9.00;;;;;;;;5070498;28;8893;-72
2023/07/30 15:37:11;;;;;;;;;10.00;8.67;;;;;;;;5070515;28;8972;-72
2023/07/30 15:39:37;;;;;;;;;10.00;10.00;;;;;;;;5070763;28;8826;-72
2023/07/30 15:42:03;;;;;;;;;12.33;12.33;;;;;;;;5070603;28;8884;-72
2023/07/30 15:44:28;;;;;;;;;12.75;12.00;;;;;;;;5070433;28;8783;-72
2023/07/30 15:46:54;;;;;;;;;12.67;11.00;;;;;;;;5070579;28;8793;-72
2023/07/30 15:49:19;;;;;;;;;11.25;11.25;;;;;;;;5070687;28;8812;-70
2023/07/30 15:51:46;;;;;;;;;11.67;10.33;;;;;;;;5070546;28;8795;-71
2023/07/30 15:54:12;;;;;;;;;11.50;9.75;;;;;;;;5070538;28;8791;-70
2023/07/30 15:56:37;;;;;;;;;7.67;7.67;;;;;;;;5069546;28;8850;-69
2023/07/30 15:59:03;;;;;;;;;10.00;9.00;;;;;;;;5068223;28;8818;-70
2023/07/30 16:01:28;;;;;;;;;11.00;11.00;;;;;;;;5068731;28;8915;-71
2023/07/30 16:03:53;;;;;;;;;11.33;11.00;;;;;;;;5070471;28;9837;-71
2023/07/30 16:06:21;;;;;;;;;15.67;14.33;;;;;;;;5070372;28;8817;-72
2023/07/30 16:08:47;;;;;;;;;11.25;10.25;;;;;;;;5067060;28;8822;-70
2023/07/30 16:11:12;;;;;;;;;13.33;13.33;;;;;;;;5070411;28;8835;-74
2023/07/30 16:13:37;;;;;;;;;13.00;12.00;;;;;;;;5074159;28;8802;-72
2023/07/30 16:16:08;;;;;;;;;13.33;12.33;;;;;;;;5074195;28;8791;-73
2023/07/30 16:18:34;;;;;;;;;14.25;12.75;;;;;;;;5074127;28;9016;-69
2023/07/30 16:21:00;;;;;;;;;11.67;11.33;;;;;;;;5074242;28;8945;-70
2023/07/30 16:23:25;;;;;;;;;16.50;15.00;;;;;;;;5073868;28;8883;-70
2023/07/30 16:25:51;;;;;;;;;11.33;11.33;;;;;;;;5072918;28;8806;-72
2023/07/30 16:28:16;;;;;;;;;12.67;11.33;;;;;;;;5072962;28;8818;-71
2023/07/30 16:30:41;;;;;;;;;9.33;8.00;;;;;;;;5072410;28;8913;-71
2023/07/30 16:33:06;;;;;;;;;13.33;13.33;;;;;;;;5073859;28;8786;-71
2023/07/30 16:35:32;;;;;;;;;15.00;14.00;;;;;;;;5073546;28;8786;-71
2023/07/30 16:37:57;;;;;;;;;15.33;13.33;;;;;;;;5073687;28;8897;-72
2023/07/30 16:40:22;;;;;;;;;9.33;8.00;;;;;;;;5073357;28;8900;-73
2023/07/30 16:42:47;;;;;;;;;11.00;11.00;;;;;;;;5073568;28;8783;-72
2023/07/30 16:45:13;;;;;;;;;11.67;11.33;;;;;;;;5073425;28;8783;-73
2023/07/30 16:47:38;;;;;;;;;12.67;12.33;;;;;;;;5073372;28;8837;-72
2023/07/30 16:50:03;;;;;;;;;14.00;12.00;;;;;;;;5073525;28;8813;-71
2023/07/30 16:52:29;;;;;;;;;5.33;4.33;;;;;;;;5073246;28;8775;-71
2023/07/30 16:54:54;;;;;;;;;15.33;14.67;;;;;;;;5071836;28;9544;-71
